Time;durP1;ratioP1;P1;durP2;ratioP2;P2;SDS_P1;SDS_P2;PMS_P1;PMS_P2;Temp;Humidity;BMP_temperature;BMP_pressure;BME280_temperature;BME280_humidity;BME280_pressure;Samples;Min_cycle;Max_cycle;Signal;HPM_P1;HPM_P2
2021/03/14 00:03:48;;;;;;;10.32;3.08;;;;;;;3.39;71.83;98658.41;8656558;32;20419;-74
2021/03/14 00:08:50;;;;;;;5.00;2.47;;;;;;;3.21;72.16;98677.47;8658036;32;21134;-74
2021/03/14 00:13:53;;;;;;;3.73;2.77;;;;;;;3.31;71.70;98674.09;8657857;32;20155;-74
2021/03/14 00:18:55;;;;;;;1.83;1.53;;;;;;;3.33;72.12;98682.78;8657217;32;20150;-75
2021/03/14 00:23:57;;;;;;;8.93;4.00;;;;;;;3.22;72.43;98681.81;8659071;32;20647;-73
2021/03/14 00:29:00;;;;;;;6.28;2.88;;;;;;;3.27;71.88;98698.22;8660486;32;20601;-74
2021/03/14 00:34:03;;;;;;;2.58;2.00;;;;;;;3.23;71.89;98710.00;8661571;32;20174;-73
2021/03/14 00:39:05;;;;;;;5.97;3.07;;;;;;;3.40;71.86;98723.78;8660258;32;21651;-74
2021/03/14 00:44:09;;;;;;;8.63;2.70;;;;;;;3.48;71.46;98722.25;8659541;32;20277;-73
2021/03/14 00:49:16;;;;;;;8.13;2.80;;;;;;;3.46;71.20;98736.59;8653326;32;20417;-74
2021/03/14 00:54:19;;;;;;;7.35;2.67;;;;;;;3.42;71.79;98745.75;8656726;32;20416;-73
2021/03/14 00:59:22;;;;;;;4.40;2.63;;;;;;;3.33;71.32;98735.88;8657076;32;20426;-73
2021/03/14 01:04:25;;;;;;;7.00;2.67;;;;;;;3.14;72.46;98771.75;8678928;32;20454;-73
2021/03/14 01:09:27;;;;;;;4.43;2.10;;;;;;;3.24;72.22;98775.41;8653228;32;20514;-74
2021/03/14 01:14:30;;;;;;;3.63;2.42;;;;;;;3.37;71.82;98782.41;8654068;32;20702;-73
2021/03/14 01:19:50;;;;;;;2.67;2.45;;;;;;;3.36;71.58;98784.22;8652102;32;20643;-74
2021/03/14 01:24:52;;;;;;;10.23;3.27;;;;;;;3.24;72.21;98796.63;8654383;32;20414;-73
2021/03/14 01:29:55;;;;;;;7.85;3.03;;;;;;;3.35;71.65;98802.94;8659155;32;20711;-73
2021/03/14 01:34:58;;;;;;;5.33;2.90;;;;;;;3.48;71.50;98793.06;8658991;32;20734;-73
2021/03/14 01:40:00;;;;;;;7.30;2.92;;;;;;;3.27;71.93;98801.72;8653705;32;20472;-73
2021/03/14 01:45:05;;;;;;;8.52;3.67;;;;;;;3.19;72.16;98796.13;8658644;32;20518;-73
2021/03/14 01:50:10;;;;;;;6.70;2.33;;;;;;;3.31;71.34;98815.59;8652293;32;21222;-73
2021/03/14 01:55:14;;;;;;;5.95;2.28;;;;;;;3.11;72.45;98829.53;8654109;32;20567;-75
2021/03/14 02:00:21;;;;;;;3.00;2.43;;;;;;;3.31;71.96;98820.88;8654911;32;20150;-75
2021/03/14 02:05:23;;;;;;;5.90;3.27;;;;;;;3.38;71.80;98839.88;8661671;32;20168;-75
2021/03/14 02:10:29;;;;;;;15.93;3.57;;;;;;;3.33;71.91;98834.06;8665903;32;20447;-74
2021/03/14 02:15:35;;;;;;;10.47;3.20;;;;;;;3.17;72.52;98851.13;8693572;32;20611;-75
2021/03/14 02:20:38;;;;;;;7.00;3.50;;;;;;;3.26;72.07;98853.09;8689228;32;20430;-75
2021/03/14 02:25:47;;;;;;;15.10;3.67;;;;;;;3.37;71.97;98865.53;8702088;32;20454;-75
2021/03/14 02:30:51;;;;;;;7.15;3.47;;;;;;;3.43;71.72;98882.84;8682828;32;20182;-75
2021/03/14 02:35:55;;;;;;;8.45;2.85;;;;;;;3.34;72.41;98880.84;8665057;32;20410;-75
2021/03/14 02:40:59;;;;;;;5.10;2.53;;;;;;;3.41;71.77;98888.25;8674840;32;20185;-75
2021/03/14 02:46:03;;;;;;;7.43;3.43;;;;;;;3.52;71.61;98905.19;8680273;32;20181;-75
2021/03/14 02:51:07;;;;;;;6.57;3.08;;;;;;;3.48;71.34;98904.56;8676908;32;20979;-75
2021/03/14 02:56:09;;;;;;;6.70;2.35;;;;;;;3.58;71.20;98912.69;8678660;32;20474;-74
2021/03/14 03:01:14;;;;;;;4.77;3.17;;;;;;;3.28;71.86;98920.16;8669464;33;20189;-75
2021/03/14 03:06:16;;;;;;;7.90;3.83;;;;;;;3.48;71.00;98925.78;8676387;33;21022;-75
2021/03/14 03:11:20;;;;;;;6.65;3.65;;;;;;;3.75;70.62;98938.81;8679124;33;20586;-74
2021/03/14 03:16:25;;;;;;;6.40;2.97;;;;;;;3.09;72.56;98941.06;8682196;33;20178;-73
2021/03/14 03:21:28;;;;;;;6.40;3.67;;;;;;;3.30;71.41;98951.06;8673612;33;20417;-73
2021/03/14 03:26:30;;;;;;;7.23;3.93;;;;;;;3.59;70.71;98944.41;8680565;33;20185;-74
2021/03/14 03:31:33;;;;;;;6.57;4.18;;;;;;;3.60;70.60;98951.44;8653725;33;20685;-73
2021/03/14 03:36:37;;;;;;;6.25;3.35;;;;;;;3.56;70.97;98976.50;8679772;33;20550;-73
2021/03/14 03:41:47;;;;;;;12.10;4.10;;;;;;;3.60;71.05;98972.69;8679221;33;20154;-74
2021/03/14 03:46:56;;;;;;;11.20;3.63;;;;;;;3.37;70.98;98984.97;8677548;33;20632;-73
2021/03/14 03:52:00;;;;;;;9.50;5.25;;;;;;;3.72;70.32;98987.69;8678820;33;20518;-74
2021/03/14 03:57:04;;;;;;;9.60;3.92;;;;;;;3.43;71.54;98992.53;8678250;32;20601;-73
2021/03/14 04:02:07;;;;;;;8.07;3.07;;;;;;;3.24;71.99;99000.13;8684590;32;20450;-73
2021/03/14 04:07:12;;;;;;;10.45;4.35;;;;;;;3.71;70.39;99020.53;8684671;32;21096;-73
2021/03/14 04:12:16;;;;;;;8.37;3.47;;;;;;;3.47;71.94;99017.03;8681812;32;20397;-74
2021/03/14 04:17:20;;;;;;;11.33;3.60;;;;;;;3.46;71.32;99033.94;8678905;32;20405;-73
2021/03/14 04:22:23;;;;;;;16.17;4.55;;;;;;;3.42;71.78;99045.72;8678957;32;20504;-74
2021/03/14 04:27:27;;;;;;;11.57;4.65;;;;;;;3.56;71.47;99042.88;8677785;32;20375;-73
2021/03/14 04:32:30;;;;;;;9.83;4.00;;;;;;;3.45;71.43;99056.94;8677516;32;20616;-73
2021/03/14 04:37:35;;;;;;;8.65;4.10;;;;;;;3.30;72.01;99062.53;8682011;32;20449;-73
2021/03/14 04:42:40;;;;;;;10.65;4.70;;;;;;;3.64;70.98;99061.75;8686285;32;20466;-73
2021/03/14 04:47:46;;;;;;;12.02;3.97;;;;;;;3.53;71.58;99077.63;8905079;32;20749;-73
2021/03/14 04:52:52;;;;;;;11.35;3.47;;;;;;;3.47;70.60;99092.19;8914562;32;20225;-73
2021/03/14 04:57:56;;;;;;;6.53;3.10;;;;;;;3.41;70.68;99111.22;8929607;32;20249;-74
2021/03/14 05:03:00;;;;;;;6.27;2.93;;;;;;;2.76;75.12;99119.34;8925425;32;20308;-74
2021/03/14 05:08:03;;;;;;;4.97;3.23;;;;;;;2.92;76.20;99135.06;8737493;32;20182;-73
2021/03/14 05:13:06;;;;;;;5.70;2.87;;;;;;;2.57;76.93;99138.31;8696163;32;20464;-74
2021/03/14 05:18:12;;;;;;;7.67;3.67;;;;;;;2.64;75.98;99149.38;8676605;32;20555;-74
2021/03/14 05:23:16;;;;;;;9.47;3.10;;;;;;;2.32;77.28;99152.34;8669742;32;21165;-73
2021/03/14 05:28:20;;;;;;;6.53;3.77;;;;;;;2.33;78.75;99175.22;8678872;32;20411;-72
2021/03/14 05:33:23;;;;;;;9.70;2.73;;;;;;;2.35;80.03;99173.34;8678536;32;21039;-73
2021/03/14 05:38:25;;;;;;;11.77;5.70;;;;;;;2.25;78.87;99188.13;8677883;32;20427;-73
2021/03/14 05:43:27;;;;;;;13.60;5.77;;;;;;;2.39;78.63;99204.84;8666729;32;20847;-73
2021/03/14 05:48:30;;;;;;;5.93;4.07;;;;;;;2.38;78.30;99213.72;8662148;32;20599;-73
2021/03/14 05:53:33;;;;;;;10.30;5.03;;;;;;;2.57;77.57;99218.69;8652818;32;20187;-73
2021/03/14 05:58:36;;;;;;;17.97;6.07;;;;;;;2.32;78.98;99218.59;8602902;33;20144;-72
2021/03/14 06:03:40;;;;;;;12.03;6.43;;;;;;;2.56;77.65;99229.41;8604095;33;20444;-73
2021/03/14 06:08:43;;;;;;;11.33;5.57;;;;;;;2.39;79.78;99235.81;8603469;33;20417;-73
2021/03/14 06:13:46;;;;;;;14.33;6.37;;;;;;;2.33;82.01;99247.66;8612457;33;20189;-73
2021/03/14 06:18:52;;;;;;;16.17;6.72;;;;;;;2.57;81.84;99253.16;8676395;32;20974;-74
2021/03/14 06:24:00;;;;;;;15.37;6.63;;;;;;;2.46;82.04;99258.28;8673948;32;20138;-75
2021/03/14 06:29:23;;;;;;;9.73;6.57;;;;;;;2.55;81.99;99284.25;8676006;32;20402;-75
2021/03/14 06:34:32;;;;;;;11.00;5.63;;;;;;;2.71;81.29;99283.22;8682166;32;20425;-75
2021/03/14 06:39:37;;;;;;;11.47;5.93;;;;;;;2.66;82.42;99283.56;8679902;32;20410;-75
2021/03/14 06:44:39;;;;;;;10.18;4.45;;;;;;;2.27;82.59;99298.38;8677772;32;20406;-75
2021/03/14 06:49:42;;;;;;;10.13;4.73;;;;;;;2.48;82.48;99311.22;8702852;32;20427;-75
2021/03/14 06:54:48;;;;;;;11.35;4.65;;;;;;;2.70;81.47;99327.47;8668575;32;20511;-74
2021/03/14 06:59:54;;;;;;;11.13;5.60;;;;;;;2.43;82.12;99337.16;8662469;32;20425;-75
2021/03/14 07:05:00;;;;;;;11.30;5.60;;;;;;;2.61;81.81;99344.81;8662946;32;20862;-75
2021/03/14 07:10:06;;;;;;;10.90;5.38;;;;;;;2.73;81.17;99351.13;8661963;32;21253;-74
2021/03/14 07:15:14;;;;;;;8.53;5.17;;;;;;;2.75;81.20;99366.94;8658995;32;20161;-74
2021/03/14 07:20:20;;;;;;;9.47;5.53;;;;;;;2.94;80.58;99374.56;8666131;32;20162;-74
2021/03/14 07:25:24;;;;;;;10.67;5.40;;;;;;;2.95;80.56;99394.81;8669431;32;20131;-71
2021/03/14 07:30:29;;;;;;;20.07;9.10;;;;;;;2.82;80.23;99398.25;8666420;32;20252;-74
2021/03/14 07:35:33;;;;;;;15.93;7.20;;;;;;;3.16;79.31;99397.88;8657702;32;21043;-74
2021/03/14 07:40:35;;;;;;;16.70;9.07;;;;;;;3.08;79.55;99419.59;8656399;32;20417;-74
2021/03/14 07:45:39;;;;;;;16.73;9.05;;;;;;;2.96;79.52;99420.38;8672279;32;20630;-74
2021/03/14 07:50:45;;;;;;;11.88;7.07;;;;;;;3.16;79.69;99441.19;8708600;32;20288;-74
2021/03/14 07:55:54;;;;;;;16.17;7.60;;;;;;;2.83;80.00;99449.53;8679792;32;20440;-74
2021/03/14 08:00:57;;;;;;;16.70;8.77;;;;;;;2.88;80.49;99470.44;8670906;32;20182;-74
2021/03/14 08:06:00;;;;;;;23.43;9.20;;;;;;;3.04;80.59;99485.31;8653867;33;20196;-74
2021/03/14 08:11:02;;;;;;;13.83;8.30;;;;;;;2.90;79.66;99472.03;8651204;33;20184;-74
2021/03/14 08:16:07;;;;;;;12.97;7.50;;;;;;;3.12;79.01;99498.03;8653171;33;20488;-74
2021/03/14 08:21:38;;;;;;;10.57;6.07;;;;;;;3.57;78.15;99498.69;8662427;33;20623;-74
2021/03/14 08:27:06;;;;;;;15.50;7.07;;;;;;;3.77;78.03;99515.94;8645101;33;20126;-74
2021/03/14 08:32:22;;;;;;;20.20;8.15;;;;;;;4.03;77.30;99537.25;8669725;32;20654;-74
2021/03/14 08:37:29;;;;;;;9.43;5.63;;;;;;;3.82;76.76;99535.09;8648484;32;20418;-74
2021/03/14 08:42:51;;;;;;;15.75;7.50;;;;;;;4.04;76.08;99544.28;8682376;32;21756;-74
2021/03/14 08:47:57;;;;;;;12.05;4.65;;;;;;;3.83;76.13;99546.56;8696713;32;20126;-74
2021/03/14 08:53:01;;;;;;;6.25;2.72;;;;;;;3.77;75.79;99549.63;8660696;32;20150;-74
2021/03/14 08:58:28;;;;;;;9.85;6.28;;;;;;;4.05;74.77;99560.09;8679327;32;20185;-73
2021/03/14 09:03:46;;;;;;;10.85;6.85;;;;;;;4.41;74.24;99563.88;8685978;32;20536;-73
2021/03/14 09:09:00;;;;;;;11.93;7.55;;;;;;;4.34;74.11;99570.59;8683053;32;20644;-73
2021/03/14 09:14:39;;;;;;;11.13;7.30;;;;;;;4.06;74.50;99575.13;8683145;32;20531;-73
2021/03/14 09:19:50;;;;;;;14.30;7.77;;;;;;;3.42;78.90;99590.78;8572454;33;20268;-73
2021/03/14 09:24:56;;;;;;;13.10;8.70;;;;;;;3.27;79.96;99574.06;8686208;32;20138;-74
2021/03/14 09:30:01;;;;;;;11.82;6.70;;;;;;;3.07;79.96;99598.31;8677633;32;20982;-74
2021/03/14 09:35:24;;;;;;;18.52;10.07;;;;;;;3.16;80.47;99602.22;8632863;33;20563;-74
2021/03/14 09:40:35;;;;;;;15.37;8.80;;;;;;;3.22;79.70;99610.66;8650926;32;20145;-74
2021/03/14 09:45:39;;;;;;;24.13;13.57;;;;;;;3.21;80.86;99616.91;8676472;32;20409;-75
2021/03/14 09:50:47;;;;;;;16.27;8.53;;;;;;;3.25;80.07;99617.56;8678395;32;20299;-74
2021/03/14 09:55:54;;;;;;;15.57;9.95;;;;;;;2.95;80.86;99629.13;8655926;32;20413;-74
2021/03/14 10:00:59;;;;;;;22.98;10.38;;;;;;;3.70;79.85;99637.69;8639732;32;20185;-74
2021/03/14 10:06:05;;;;;;;23.90;11.70;;;;;;;3.96;79.30;99627.16;8648978;32;20185;-74
2021/03/14 10:11:20;;;;;;;17.88;10.73;;;;;;;4.13;78.55;99640.19;8618561;33;20670;-74
2021/03/14 10:16:39;;;;;;;13.20;8.77;;;;;;;3.97;77.17;99643.97;8654989;33;20146;-73
2021/03/14 10:21:46;;;;;;;21.67;11.90;;;;;;;4.33;77.17;99667.25;8654439;33;20139;-73
2021/03/14 10:27:22;;;;;;;22.15;11.93;;;;;;;4.65;75.56;99662.44;8603851;33;21024;-73
2021/03/14 10:33:00;;;;;;;10.02;6.45;;;;;;;3.87;75.30;99671.13;8685625;32;21264;-73
2021/03/14 10:38:15;;;;;;;12.93;7.30;;;;;;;4.06;75.11;99686.75;8682048;32;20531;-73
2021/03/14 10:43:23;;;;;;;16.58;10.18;;;;;;;4.09;75.33;99688.34;8700055;32;20454;-73
2021/03/14 10:48:38;;;;;;;17.58;9.07;;;;;;;3.96;77.40;99682.97;8635627;32;20212;-73
2021/03/14 10:53:42;;;;;;;16.20;11.25;;;;;;;3.84;78.82;99683.75;8629437;33;20414;-73
2021/03/14 10:58:59;;;;;;;21.50;11.23;;;;;;;4.13;79.07;99697.81;8655584;32;20728;-73
2021/03/14 11:04:33;;;;;;;12.82;6.60;;;;;;;3.87;77.55;99711.00;8656218;32;20407;-73
2021/03/14 11:09:43;;;;;;;13.70;6.30;;;;;;;4.84;76.20;99701.97;8671060;32;20409;-72
2021/03/14 11:14:47;;;;;;;10.70;6.15;;;;;;;4.18;75.12;99723.16;8698410;32;20137;-73
2021/03/14 11:19:56;;;;;;;6.88;5.13;;;;;;;3.73;75.34;99721.66;8683487;32;20234;-73
2021/03/14 11:25:02;;;;;;;16.40;8.55;;;;;;;3.83;76.35;99724.56;8698720;32;20422;-73
2021/03/14 11:30:10;;;;;;;7.88;4.45;;;;;;;4.04;74.66;99731.16;8670004;32;20206;-73
2021/03/14 11:35:17;;;;;;;10.07;5.90;;;;;;;3.88;75.93;99739.25;8676448;32;20176;-73
2021/03/14 11:40:53;;;;;;;11.57;8.05;;;;;;;3.59;76.78;99734.91;8663703;32;20192;-73
2021/03/14 11:46:35;;;;;;;14.50;9.70;;;;;;;4.22;75.50;99742.41;8665031;32;20831;-73
2021/03/14 11:51:51;;;;;;;8.57;5.63;;;;;;;4.45;75.19;99742.72;8701617;32;20423;-73
2021/03/14 11:56:55;;;;;;;17.88;5.25;;;;;;;4.88;73.25;99737.19;8674725;32;20134;-73
2021/03/14 12:02:03;;;;;;;16.55;9.20;;;;;;;5.98;71.08;99726.84;8673854;32;20495;-73
2021/03/14 12:07:26;;;;;;;9.57;6.05;;;;;;;7.40;66.59;99723.28;8678852;32;20178;-73
2021/03/14 12:12:30;;;;;;;14.18;7.78;;;;;;;6.93;67.88;99721.63;8678290;32;20309;-73
2021/03/14 12:17:40;;;;;;;10.82;5.68;;;;;;;6.10;67.60;99725.94;8674366;32;21182;-73
2021/03/14 12:23:02;;;;;;;12.35;6.40;;;;;;;7.00;68.62;99722.88;8674946;32;20424;-73
2021/03/14 12:28:10;;;;;;;10.38;7.47;;;;;;;7.60;65.20;99734.25;8674343;32;20185;-73
2021/03/14 12:33:14;;;;;;;8.55;5.32;;;;;;;6.72;65.67;99722.25;8678559;32;22362;-71
2021/03/14 12:38:18;;;;;;;5.75;4.22;;;;;;;6.74;65.88;99728.31;8702021;32;20197;-73
2021/03/14 12:43:22;;;;;;;10.93;5.07;;;;;;;5.85;67.37;99742.03;8694324;32;20335;-75
2021/03/14 12:48:27;;;;;;;12.48;6.65;;;;;;;6.04;66.39;99729.06;8678867;32;20928;-74
2021/03/14 12:53:35;;;;;;;13.38;6.72;;;;;;;5.90;67.01;99735.41;8677555;32;20624;-74
2021/03/14 12:58:42;;;;;;;10.43;5.60;;;;;;;5.51;68.16;99728.41;8682525;32;20182;-74
2021/03/14 13:03:46;;;;;;;16.33;9.97;;;;;;;6.04;69.89;99709.56;8685895;32;20493;-74
2021/03/14 13:08:48;;;;;;;16.67;8.93;;;;;;;7.35;63.99;99714.81;8689202;32;20658;-74
2021/03/14 13:13:51;;;;;;;15.68;8.73;;;;;;;8.66;61.38;99706.94;8688354;32;20208;-74
2021/03/14 13:18:54;;;;;;;12.82;6.00;;;;;;;8.00;61.73;99723.88;8694513;32;20186;-73
2021/03/14 13:23:58;;;;;;;21.48;8.77;;;;;;;6.57;63.40;99715.41;8692674;32;20695;-73
2021/03/14 13:29:00;;;;;;;18.92;8.82;;;;;;;5.86;66.42;99728.56;8684052;32;20429;-73
2021/03/14 13:34:03;;;;;;;14.25;9.88;;;;;;;5.45;67.66;99732.34;8689331;32;20166;-74
2021/03/14 13:39:06;;;;;;;14.93;8.52;;;;;;;5.23;68.88;99743.66;8701150;32;20859;-74
2021/03/14 13:44:08;;;;;;;14.98;7.95;;;;;;;5.33;69.47;99743.03;8710943;32;20147;-74
2021/03/14 13:49:11;;;;;;;12.75;4.90;;;;;;;4.98;70.63;99755.09;8690890;32;21010;-74
2021/03/14 13:54:14;;;;;;;18.52;8.95;;;;;;;5.24;71.00;99742.72;8687229;32;20444;-74
2021/03/14 13:59:16;;;;;;;16.42;9.25;;;;;;;6.60;70.91;99745.38;8683023;32;20186;-73
2021/03/14 14:04:19;;;;;;;12.98;7.35;;;;;;;10.46;61.06;99725.16;8710354;32;20384;-72
2021/03/14 14:09:22;;;;;;;10.80;7.40;;;;;;;11.08;55.52;99730.22;8710399;32;20411;-73
2021/03/14 14:14:24;;;;;;;10.35;5.68;;;;;;;9.15;55.98;99737.59;8689361;32;20400;-73
2021/03/14 14:19:27;;;;;;;10.23;5.65;;;;;;;7.49;60.64;99746.63;8676167;32;20658;-73
2021/03/14 14:24:29;;;;;;;10.68;6.82;;;;;;;6.33;63.35;99774.94;8675809;32;20210;-73
2021/03/14 14:29:32;;;;;;;9.38;5.45;;;;;;;5.23;70.58;99774.75;8680819;32;20189;-73
2021/03/14 14:34:35;;;;;;;12.43;8.38;;;;;;;4.50;76.30;99792.00;8679829;32;20411;-74
2021/03/14 14:39:37;;;;;;;9.27;5.95;;;;;;;3.89;80.06;99785.28;8679835;32;20675;-74
2021/03/14 14:44:40;;;;;;;10.88;5.35;;;;;;;3.89;81.99;99786.13;8688946;32;20464;-74
2021/03/14 14:49:43;;;;;;;12.73;7.15;;;;;;;4.45;81.88;99790.59;8687167;32;22035;-74
2021/03/14 14:54:45;;;;;;;14.55;7.40;;;;;;;6.02;86.88;99794.13;8685300;32;20442;-75
2021/03/14 14:59:47;;;;;;;10.82;6.28;;;;;;;9.68;73.97;99770.53;8679278;32;20510;-75
2021/03/14 15:04:50;;;;;;;6.97;3.75;;;;;;;9.34;67.67;99763.69;8672695;32;20164;-73
2021/03/14 15:09:52;;;;;;;4.30;3.22;;;;;;;8.91;68.74;99770.00;8689418;32;20253;-73
2021/03/14 15:14:55;;;;;;;5.47;2.60;;;;;;;6.31;69.24;99766.22;8706136;32;20184;-74
2021/03/14 15:19:59;;;;;;;4.22;2.70;;;;;;;6.65;72.10;99770.88;8692846;32;20179;-75
2021/03/14 15:25:02;;;;;;;7.05;3.78;;;;;;;6.39;72.35;99777.19;8720970;32;20710;-74
2021/03/14 15:30:07;;;;;;;7.85;4.80;;;;;;;5.61;73.58;99782.75;8726438;32;21958;-74
2021/03/14 15:35:12;;;;;;;9.45;4.00;;;;;;;4.93;75.33;99781.16;8731940;32;20126;-74
2021/03/14 15:40:16;;;;;;;6.63;2.95;;;;;;;3.69;79.78;99813.94;8715632;32;20451;-73
2021/03/14 15:45:18;;;;;;;4.05;2.80;;;;;;;4.09;81.97;99805.31;8716389;32;20224;-74
2021/03/14 15:50:22;;;;;;;5.40;2.50;;;;;;;4.35;81.72;99790.31;8711476;32;20244;-75
2021/03/14 15:55:25;;;;;;;2.58;1.70;;;;;;;5.30;78.67;99788.53;8706556;32;20266;-73
2021/03/14 16:00:27;;;;;;;4.93;2.50;;;;;;;5.65;76.65;99797.59;8708074;32;20397;-74
2021/03/14 16:05:30;;;;;;;6.60;2.92;;;;;;;5.63;75.93;99790.66;8707535;32;20394;-73
2021/03/14 16:10:33;;;;;;;3.25;2.08;;;;;;;4.74;76.47;99802.81;8724499;32;20180;-73
2021/03/14 16:15:35;;;;;;;4.47;2.33;;;;;;;4.87;77.32;99786.91;8723815;32;21298;-74
2021/03/14 16:20:38;;;;;;;2.60;1.33;;;;;;;4.68;75.47;99786.41;8698471;32;20413;-72
2021/03/14 16:25:40;;;;;;;2.58;1.70;;;;;;;4.43;75.35;99789.84;8676638;32;20409;-73
2021/03/14 16:30:43;;;;;;;1.65;1.23;;;;;;;3.98;75.79;99791.81;8693922;32;20189;-72
2021/03/14 16:35:46;;;;;;;4.13;1.92;;;;;;;3.84;75.77;99782.06;8711020;32;20162;-72
2021/03/14 16:40:48;;;;;;;1.85;1.70;;;;;;;4.52;76.21;99787.41;8705470;32;20153;-72
2021/03/14 16:45:54;;;;;;;4.30;2.15;;;;;;;4.65;74.39;99803.44;8705119;32;20934;-73
2021/03/14 16:50:57;;;;;;;5.45;2.10;;;;;;;4.06;75.83;99803.69;8704760;32;20194;-73
2021/03/14 16:55:59;;;;;;;1.95;1.70;;;;;;;3.88;75.95;99803.03;8705051;32;20180;-72
2021/03/14 17:01:02;;;;;;;4.25;1.98;;;;;;;3.94;76.25;99807.97;8699614;32;20240;-73
2021/03/14 17:06:05;;;;;;;2.45;1.98;;;;;;;3.58;77.41;99834.16;8693976;32;20417;-73
2021/03/14 17:11:08;;;;;;;2.90;2.00;;;;;;;3.21;80.17;99837.22;8710559;32;20879;-74
2021/03/14 17:16:10;;;;;;;3.88;1.90;;;;;;;2.99;80.91;99836.75;8717240;32;20906;-74
2021/03/14 17:21:13;;;;;;;1.60;1.35;;;;;;;2.54;81.84;99854.34;8705061;32;20745;-74
2021/03/14 17:26:16;;;;;;;1.40;1.30;;;;;;;3.03;87.42;99848.91;8697475;32;20157;-74
2021/03/14 17:31:18;;;;;;;4.07;1.43;;;;;;;2.69;87.77;99850.84;8694304;32;20495;-74
2021/03/14 17:36:21;;;;;;;4.45;2.10;;;;;;;3.18;88.39;99857.75;8717280;32;20560;-75
2021/03/14 17:41:23;;;;;;;0.80;0.80;;;;;;;2.75;87.60;99873.50;8718941;32;20435;-74
2021/03/14 17:46:25;;;;;;;2.28;2.03;;;;;;;3.87;85.87;99877.53;8716577;32;20179;-74
2021/03/14 17:51:29;;;;;;;1.73;1.63;;;;;;;3.26;85.45;99879.41;8715866;32;20418;-74
2021/03/14 17:56:31;;;;;;;0.90;0.90;;;;;;;4.07;85.13;99881.63;8673496;32;20443;-74
2021/03/14 18:01:33;;;;;;;3.90;2.23;;;;;;;3.76;84.00;99878.19;8677528;32;20617;-74
2021/03/14 18:06:39;;;;;;;1.65;1.55;;;;;;;3.90;84.06;99888.84;8694246;32;20429;-73
2021/03/14 18:11:42;;;;;;;4.40;2.50;;;;;;;3.73;82.53;99886.34;8685616;32;20438;-74
2021/03/14 18:16:44;;;;;;;4.00;1.90;;;;;;;4.04;82.32;99884.47;8716645;32;20172;-74
2021/03/14 18:21:48;;;;;;;5.53;3.55;;;;;;;5.33;79.31;99892.19;8690564;32;20443;-74
2021/03/14 18:26:50;;;;;;;16.08;3.20;;;;;;;6.74;68.03;99888.47;8684669;32;20857;-74
2021/03/14 18:32:06;;;;;;;9.80;3.60;;;;;;;-149.37;100.00;59372.97;8656057;32;20407;-75
2021/03/14 18:37:53;;;;;;;1.23;1.23;;;;;;;-149.37;100.00;59372.97;8656426;32;21059;-74
2021/03/14 18:43:54;;;;;;;2.25;1.90;;;;;;;-149.37;100.00;59372.97;8653291;32;20211;-74
2021/03/14 18:48:56;;;;;;;5.15;3.00;;;;;;;-149.37;100.00;59372.97;8649717;32;20227;-73
2021/03/14 18:54:00;;;;;;;2.80;1.67;;;;;;;3.06;80.11;99901.78;8663689;32;20185;-73
2021/03/14 18:59:02;;;;;;;7.25;2.47;;;;;;;3.13;79.45;99902.31;8708306;32;20130;-73
2021/03/14 19:04:05;;;;;;;3.30;2.80;;;;;;;3.04;79.53;99896.59;8672553;32;20188;-73
2021/03/14 19:09:08;;;;;;;10.02;3.40;;;;;;;3.11;79.20;99907.69;8693853;32;20190;-74
2021/03/14 19:14:11;;;;;;;5.28;2.78;;;;;;;3.03;78.99;99905.47;8670300;32;21122;-74
2021/03/14 19:19:13;;;;;;;8.40;3.22;;;;;;;3.19;79.00;99908.09;8694925;32;20455;-73
2021/03/14 19:24:17;;;;;;;5.63;3.55;;;;;;;3.11;79.42;99914.81;8693343;32;20186;-74
2021/03/14 19:29:19;;;;;;;12.98;3.55;;;;;;;3.24;79.10;99921.13;8633440;32;20504;-74
2021/03/14 19:34:23;;;;;;;9.07;4.50;;;;;;;3.39;78.83;99908.75;8632492;32;20518;-74
2021/03/14 19:39:26;;;;;;;8.45;4.10;;;;;;;3.45;78.84;99917.19;8640778;32;20420;-74
2021/03/14 19:44:28;;;;;;;12.07;4.43;;;;;;;3.48;78.77;99911.72;8640764;32;20537;-74
2021/03/14 19:49:30;;;;;;;6.25;3.50;;;;;;;3.37;79.08;99911.47;8645368;32;20209;-75
2021/03/14 19:54:33;;;;;;;5.25;3.22;;;;;;;3.22;78.74;99907.94;8656690;32;21075;-74
2021/03/14 19:59:36;;;;;;;10.48;4.68;;;;;;;3.31;78.75;99903.03;8699317;32;20146;-74
2021/03/14 20:04:38;;;;;;;12.88;5.47;;;;;;;3.43;78.43;99907.63;8652283;32;20430;-74
2021/03/14 20:09:41;;;;;;;9.15;5.07;;;;;;;3.37;78.20;99900.00;8644346;32;20417;-74
2021/03/14 20:14:43;;;;;;;9.27;4.75;;;;;;;3.21;77.74;99894.72;8662183;32;20869;-74
2021/03/14 20:19:45;;;;;;;7.03;4.20;;;;;;;3.16;77.30;99895.03;8664186;32;20147;-74
2021/03/14 20:24:48;;;;;;;10.75;4.47;;;;;;;3.26;76.97;99897.97;8650149;32;20701;-75
2021/03/14 20:29:50;;;;;;;8.55;4.20;;;;;;;3.18;76.71;99900.22;8655485;32;20150;-73
2021/03/14 20:34:53;;;;;;;4.53;2.80;;;;;;;3.10;76.77;99905.13;8712084;32;20252;-74
2021/03/14 20:39:56;;;;;;;9.70;4.40;;;;;;;3.24;76.42;99907.84;8703470;32;20460;-74
2021/03/14 20:44:58;;;;;;;8.32;3.17;;;;;;;3.07;75.81;99903.50;8726509;32;20442;-73
2021/03/14 20:50:00;;;;;;;6.03;2.60;;;;;;;3.04;76.13;99906.31;8700734;32;20327;-73
2021/03/14 20:55:05;;;;;;;6.37;3.70;;;;;;;3.12;75.88;99913.84;8731364;32;20170;-73
2021/03/14 21:00:08;;;;;;;13.10;4.67;;;;;;;3.13;75.74;99910.28;8681232;32;22376;-73
2021/03/14 21:05:11;;;;;;;4.93;3.85;;;;;;;2.86;75.96;99910.03;8637258;32;20515;-73
2021/03/14 21:10:15;;;;;;;8.35;4.38;;;;;;;2.98;76.14;99906.69;8653913;32;21241;-73
2021/03/14 21:15:18;;;;;;;5.93;2.60;;;;;;;2.92;76.44;99909.69;8680283;32;20189;-73
2021/03/14 21:20:22;;;;;;;9.80;4.53;;;;;;;2.92;76.54;99905.22;8657148;32;20440;-73
2021/03/14 21:25:25;;;;;;;4.63;2.72;;;;;;;3.01;76.35;99894.09;8653825;32;20418;-74
2021/03/14 21:30:27;;;;;;;8.03;4.50;;;;;;;3.14;76.02;99886.28;8652460;32;20267;-73
2021/03/14 21:35:31;;;;;;;10.23;4.53;;;;;;;3.08;75.91;99891.09;8650510;32;20455;-73
2021/03/14 21:40:34;;;;;;;8.45;4.93;;;;;;;3.24;75.57;99884.81;8663590;32;20442;-73
2021/03/14 21:45:37;;;;;;;12.15;5.68;;;;;;;3.22;75.91;99892.00;8652555;32;20511;-74
2021/03/14 21:50:39;;;;;;;6.20;4.05;;;;;;;3.23;76.07;99885.72;8655226;32;20434;-74
2021/03/14 21:55:42;;;;;;;12.43;4.82;;;;;;;3.19;75.88;99888.69;8674484;32;20903;-74
2021/03/14 22:00:44;;;;;;;15.47;5.43;;;;;;;3.20;75.90;99872.66;8661235;32;20192;-74
2021/03/14 22:05:47;;;;;;;6.70;3.57;;;;;;;3.19;75.14;99872.75;8690498;32;20452;-74
2021/03/14 22:10:50;;;;;;;13.32;5.10;;;;;;;3.27;75.18;99863.38;8713719;32;20402;-74
2021/03/14 22:15:52;;;;;;;7.95;3.20;;;;;;;3.13;75.19;99850.06;8713181;32;20141;-74
2021/03/14 22:20:55;;;;;;;6.75;3.63;;;;;;;3.22;75.08;99835.41;8714584;32;20432;-74
2021/03/14 22:25:58;;;;;;;7.38;2.95;;;;;;;3.17;74.86;99846.28;8720146;32;20396;-73
2021/03/14 22:31:00;;;;;;;8.60;3.67;;;;;;;3.32;74.76;99835.69;8711757;32;21014;-74
2021/03/14 22:36:03;;;;;;;11.48;4.75;;;;;;;3.17;75.09;99835.66;8711750;32;20398;-74
2021/03/14 22:41:06;;;;;;;13.30;4.90;;;;;;;3.19;75.01;99835.59;8711058;32;20925;-73
2021/03/14 22:46:09;;;;;;;2.67;2.47;;;;;;;3.15;75.43;99837.56;8711569;32;20946;-74
2021/03/14 22:51:11;;;;;;;22.23;5.13;;;;;;;3.22;76.37;99824.78;8687410;32;21169;-74
2021/03/14 22:56:14;;;;;;;3.20;1.83;;;;;;;3.11;76.03;99844.00;8668692;32;20192;-74
2021/03/14 23:01:16;;;;;;;12.60;4.30;;;;;;;3.18;77.21;99832.09;8651167;32;20138;-73
2021/03/14 23:06:19;;;;;;;4.17;2.10;;;;;;;2.88;77.87;99832.09;8651545;32;20582;-74
2021/03/14 23:11:24;;;;;;;11.97;3.73;;;;;;;3.08;78.26;99830.06;8652114;32;20505;-74
2021/03/14 23:16:26;;;;;;;10.63;4.20;;;;;;;3.14;79.00;99827.88;8652113;32;20466;-75
2021/03/14 23:21:31;;;;;;;8.87;3.80;;;;;;;2.99;79.95;99826.13;8659090;32;20203;-75
2021/03/14 23:26:36;;;;;;;6.07;2.53;;;;;;;2.93;81.00;99824.69;8654411;32;20126;-75
2021/03/14 23:31:42;;;;;;;8.60;3.77;;;;;;;2.79;81.85;99811.38;8657342;32;20445;-75
2021/03/14 23:36:46;;;;;;;7.82;4.28;;;;;;;2.84;81.69;99806.66;8649051;32;20492;-75
2021/03/14 23:41:49;;;;;;;9.77;3.90;;;;;;;2.79;81.75;99792.81;8635433;32;20890;-75
2021/03/14 23:46:51;;;;;;;9.82;4.68;;;;;;;2.95;81.27;99790.13;8646791;32;20415;-75
2021/03/14 23:51:53;;;;;;;8.37;4.07;;;;;;;2.80;81.71;99790.06;8653443;32;20556;-75
2021/03/14 23:56:56;;;;;;;11.23;4.63;;;;;;;2.75;82.09;99783.34;8702005;32;20895;-75
